createdAt,value
2022-12-23T00:01:01.702Z,5.53
2022-12-23T00:03:30.516Z,10.15
2022-12-23T00:05:58.935Z,7.47
2022-12-23T00:08:27.250Z,7.50
2022-12-23T00:10:56.671Z,5.38
2022-12-23T00:13:42.185Z,8.88
2022-12-23T00:16:13.839Z,8.82
2022-12-23T00:18:41.984Z,8.27
2022-12-23T00:21:15.288Z,9.50
2022-12-23T00:23:45.386Z,9.18
2022-12-23T00:26:26.624Z,8.90
2022-12-23T00:28:57.627Z,12.45
2022-12-23T00:31:25.482Z,11.18
2022-12-23T00:33:54.357Z,10.50
2022-12-23T00:36:30.079Z,7.13
2022-12-23T00:39:17.776Z,9.57
2022-12-23T00:42:03.526Z,18.23
2022-12-23T00:44:30.495Z,9.40
2022-12-23T00:46:57.471Z,8.85
2022-12-23T00:49:42.856Z,8.95
2022-12-23T00:52:12.669Z,9.05
2022-12-23T00:54:39.992Z,8.48
2022-12-23T00:57:06.980Z,11.85
2022-12-23T00:59:34.269Z,8.23
2022-12-23T01:02:19.929Z,7.72
2022-12-23T01:05:05.314Z,6.47
2022-12-23T01:07:32.324Z,7.07
2022-12-23T01:09:59.284Z,7.47
2022-12-23T01:12:26.301Z,8.15
2022-12-23T01:14:53.379Z,6.47
2022-12-23T01:17:20.417Z,9.95
2022-12-23T01:19:47.339Z,5.45
2022-12-23T01:22:14.281Z,5.05
2022-12-23T01:24:41.155Z,9.63
2022-12-23T01:27:08.081Z,9.32
2022-12-23T01:29:35.022Z,6.20
2022-12-23T01:32:01.987Z,10.80
2022-12-23T01:34:36.190Z,5.28
2022-12-23T01:37:04.081Z,5.53
2022-12-23T01:39:30.952Z,5.97
2022-12-23T01:42:16.239Z,3.60
2022-12-23T01:44:59.847Z,5.60
2022-12-23T01:47:40.303Z,3.67
2022-12-23T01:50:16.293Z,7.25
2022-12-23T01:53:08.487Z,4.38
2022-12-23T01:55:49.503Z,9.80
2022-12-23T01:58:38.734Z,5.72
2022-12-23T02:01:25.560Z,6.20
2022-12-23T02:03:57.747Z,5.85
2022-12-23T02:06:46.799Z,8.60
2022-12-23T02:09:22.734Z,8.55
2022-12-23T02:12:13.862Z,7.22
2022-12-23T02:15:17.728Z,3.90
2022-12-23T02:17:58.167Z,4.78
2022-12-23T02:20:58.963Z,4.80
2022-12-23T02:24:02.952Z,5.50
2022-12-23T02:27:07.705Z,6.45
2022-12-23T02:30:12.064Z,5.43
2022-12-23T02:33:10.497Z,9.95
2022-12-23T02:35:40.388Z,7.82
2022-12-23T02:38:12.376Z,12.88
2022-12-23T02:41:06.777Z,9.00
2022-12-23T02:43:55.736Z,6.78
2022-12-23T02:46:31.869Z,10.77
2022-12-23T02:49:05.199Z,6.13
2022-12-23T02:51:37.095Z,11.73
2022-12-23T02:56:37.050Z,8.50
2022-12-23T02:59:15.512Z,7.15
2022-12-23T03:01:44.636Z,7.72
2022-12-23T03:04:11.771Z,5.93
2022-12-23T03:07:05.902Z,15.60
2022-12-23T03:09:47.023Z,6.88
2022-12-23T03:12:39.422Z,5.20
2022-12-23T03:15:20.089Z,7.72
2022-12-23T03:18:06.401Z,5.63
2022-12-23T03:20:48.906Z,11.35
2022-12-23T03:23:53.535Z,15.60
2022-12-23T03:26:28.478Z,8.00
2022-12-23T03:28:55.443Z,7.95
2022-12-23T03:31:28.601Z,8.18
2022-12-23T03:34:03.796Z,10.13
2022-12-23T03:36:56.190Z,13.07
2022-12-23T03:39:31.135Z,13.75
2022-12-23T03:42:04.387Z,6.93
2022-12-23T03:44:38.971Z,10.20
2022-12-23T03:47:20.096Z,13.48
2022-12-23T03:50:01.941Z,10.03
2022-12-23T03:52:39.081Z,12.43
2022-12-23T03:55:11.465Z,12.60
2022-12-23T03:57:44.995Z,9.90
2022-12-23T04:00:12.519Z,8.70
2022-12-23T04:02:55.964Z,9.18
2022-12-23T04:05:30.444Z,12.55
2022-12-23T04:08:24.967Z,11.38
2022-12-23T04:10:52.552Z,10.25
2022-12-23T04:13:19.576Z,10.00
2022-12-23T04:15:46.970Z,8.55
2022-12-23T04:18:14.100Z,5.78
2022-12-23T04:20:41.207Z,9.50
2022-12-23T04:23:08.067Z,14.68
2022-12-23T04:25:35.025Z,8.35
2022-12-23T04:28:01.986Z,8.77
2022-12-23T04:30:33.925Z,10.82
2022-12-23T04:33:02.346Z,8.85
2022-12-23T04:35:30.468Z,9.88
2022-12-23T04:37:57.614Z,11.70
2022-12-23T04:40:24.527Z,11.82
2022-12-23T04:42:51.393Z,10.27
2022-12-23T04:45:18.423Z,12.02
2022-12-23T04:47:45.370Z,7.30
2022-12-23T04:50:16.746Z,12.50
2022-12-23T04:52:44.284Z,10.38
2022-12-23T04:55:11.313Z,8.88
2022-12-23T04:57:38.296Z,8.60
2022-12-23T05:00:05.959Z,13.48
2022-12-23T05:02:33.090Z,11.02
2022-12-23T05:05:00.038Z,10.80
2022-12-23T05:07:26.908Z,17.30
2022-12-23T05:09:53.821Z,11.82
2022-12-23T05:12:20.699Z,12.00
2022-12-23T05:14:47.715Z,9.82
2022-12-23T05:17:14.595Z,20.98
2022-12-23T05:19:41.520Z,11.45
2022-12-23T05:22:08.454Z,10.85
2022-12-23T05:24:35.367Z,13.60
2022-12-23T05:27:02.299Z,12.73
2022-12-23T05:29:29.258Z,10.63
2022-12-23T05:31:56.237Z,14.13
2022-12-23T05:34:23.190Z,9.77
2022-12-23T05:36:50.141Z,10.13
2022-12-23T05:39:17.053Z,14.43
2022-12-23T05:41:44.233Z,13.95
2022-12-23T05:44:11.139Z,18.63
2022-12-23T05:46:38.154Z,11.80
2022-12-23T05:49:05.089Z,15.68
2022-12-23T05:51:31.980Z,12.25
2022-12-23T05:53:59.119Z,17.45
2022-12-23T05:56:26.084Z,6.13
2022-12-23T05:58:53.141Z,6.55
2022-12-23T06:01:20.260Z,14.85
2022-12-23T06:03:47.235Z,11.05
2022-12-23T06:06:14.328Z,11.40
2022-12-23T06:08:41.241Z,15.88
2022-12-23T06:11:08.230Z,8.20
2022-12-23T06:13:35.054Z,15.68
2022-12-23T06:16:02.011Z,8.88
2022-12-23T06:18:28.892Z,12.23
2022-12-23T06:20:55.841Z,18.83
2022-12-23T06:23:22.770Z,9.57
2022-12-23T06:25:49.625Z,13.60
2022-12-23T06:28:16.590Z,13.55
2022-12-23T06:30:43.513Z,15.18
2022-12-23T06:33:10.487Z,12.32
2022-12-23T06:35:37.357Z,10.32
2022-12-23T06:38:08.783Z,10.30
2022-12-23T06:40:38.732Z,19.65
2022-12-23T06:43:05.755Z,15.05
2022-12-23T06:45:32.705Z,11.57
2022-12-23T06:47:59.599Z,11.07
2022-12-23T06:50:26.692Z,14.80
2022-12-23T06:52:53.548Z,17.80
2022-12-23T06:55:20.497Z,14.18
2022-12-23T06:57:47.610Z,13.20
2022-12-23T07:00:15.349Z,11.70
2022-12-23T07:02:42.411Z,12.40
2022-12-23T07:05:09.618Z,12.70
2022-12-23T07:07:36.587Z,10.32
2022-12-23T07:10:03.911Z,13.77
2022-12-23T07:12:30.771Z,11.45
2022-12-23T07:14:57.825Z,11.52
2022-12-23T07:17:24.766Z,9.65
2022-12-23T07:19:51.642Z,13.40
2022-12-23T07:22:18.602Z,12.45
2022-12-23T07:24:45.477Z,12.82
2022-12-23T07:27:12.606Z,12.80
2022-12-23T07:29:39.549Z,13.07
2022-12-23T07:32:06.568Z,14.43
2022-12-23T07:34:36.052Z,12.68
2022-12-23T07:37:04.350Z,8.70
2022-12-23T07:39:31.329Z,12.40
2022-12-23T07:42:25.018Z,29.45
2022-12-23T07:44:45.376Z,11.40
2022-12-23T07:47:12.244Z,13.32
2022-12-23T07:49:39.213Z,12.98
2022-12-23T07:52:06.134Z,12.90
2022-12-23T07:54:33.013Z,9.48
2022-12-23T07:57:00.030Z,13.07
2022-12-23T07:59:27.417Z,10.38
2022-12-23T08:01:54.509Z,12.13
2022-12-23T08:04:21.730Z,15.43
2022-12-23T08:06:48.686Z,14.70
2022-12-23T08:09:15.544Z,12.75
2022-12-23T08:11:42.540Z,18.10
2022-12-23T08:14:09.582Z,23.42
2022-12-23T08:16:43.126Z,14.13
2022-12-23T08:19:10.686Z,14.45
2022-12-23T08:21:37.556Z,13.85
2022-12-23T08:24:04.716Z,19.25
2022-12-23T08:26:32.852Z,16.48
2022-12-23T08:29:00.536Z,23.77
2022-12-23T08:31:31.856Z,13.60
2022-12-23T08:34:00.126Z,16.98
2022-12-23T08:36:35.162Z,17.13
2022-12-23T08:39:05.944Z,17.10
2022-12-23T08:41:36.636Z,17.90
2022-12-23T08:44:04.486Z,17.33
2022-12-23T08:46:31.485Z,19.65
2022-12-23T08:48:58.613Z,18.85
2022-12-23T08:51:26.502Z,31.75
2022-12-23T08:54:00.175Z,19.25
2022-12-23T08:56:38.934Z,31.98
2022-12-23T08:59:07.727Z,18.58
2022-12-23T09:01:35.396Z,25.15
2022-12-23T09:04:04.343Z,19.13
2022-12-23T09:06:35.629Z,21.35
2022-12-23T09:09:03.213Z,18.45
2022-12-23T09:11:30.379Z,11.90
2022-12-23T09:14:00.461Z,17.58
2022-12-23T09:16:28.401Z,18.85
2022-12-23T09:18:56.116Z,11.93
2022-12-23T09:21:24.260Z,16.80
2022-12-23T09:23:51.612Z,15.00
2022-12-23T09:26:24.834Z,13.75
2022-12-23T09:28:52.408Z,16.48
2022-12-23T09:31:20.064Z,12.50
2022-12-23T09:33:49.240Z,10.07
2022-12-23T09:36:16.844Z,10.50
2022-12-23T09:38:44.270Z,12.23
2022-12-23T09:41:22.956Z,8.73
2022-12-23T09:43:58.723Z,12.23
2022-12-23T09:46:28.720Z,10.38
2022-12-23T09:49:17.537Z,9.63
2022-12-23T09:51:47.344Z,14.25
2022-12-23T09:54:17.767Z,12.02
2022-12-23T09:56:59.052Z,10.95
2022-12-23T09:59:44.090Z,12.18
2022-12-23T10:02:43.087Z,12.80
2022-12-23T10:05:30.315Z,12.23
2022-12-23T10:08:07.612Z,11.98
2022-12-23T10:10:49.842Z,10.55
2022-12-23T10:13:29.769Z,8.27
2022-12-23T10:16:03.380Z,12.25
2022-12-23T10:19:08.367Z,10.40
2022-12-23T10:21:45.384Z,8.52
2022-12-23T10:24:22.575Z,9.88
2022-12-23T10:26:53.103Z,11.68
2022-12-23T10:29:22.852Z,6.47
2022-12-23T10:32:11.547Z,9.95
2022-12-23T10:35:07.493Z,7.47
2022-12-23T10:37:40.649Z,8.07
2022-12-23T10:40:41.755Z,11.15
2022-12-23T10:43:32.018Z,11.57
2022-12-23T10:46:20.982Z,8.82
2022-12-23T10:49:05.749Z,7.72
2022-12-23T10:51:45.762Z,7.63
2022-12-23T10:54:22.141Z,5.53
2022-12-23T10:56:49.254Z,12.27
2022-12-23T10:59:23.318Z,9.27
2022-12-23T11:01:57.853Z,8.68
2022-12-23T11:04:35.759Z,9.40
2022-12-23T11:07:42.042Z,11.55
2022-12-23T11:10:04.671Z,7.10
2022-12-23T11:12:45.636Z,7.25
2022-12-23T11:15:27.571Z,7.50
2022-12-23T11:20:26.139Z,6.57
2022-12-23T11:23:04.829Z,10.30
2022-12-23T11:25:41.498Z,5.95
2022-12-23T11:28:11.206Z,7.95
2022-12-23T11:30:39.129Z,7.60
2022-12-23T11:33:06.609Z,9.70
2022-12-23T11:35:36.841Z,8.60
2022-12-23T11:38:04.430Z,8.52
2022-12-23T11:40:38.175Z,8.98
2022-12-23T11:43:12.968Z,8.48
2022-12-23T11:45:40.009Z,7.03
2022-12-23T11:48:26.242Z,7.28
2022-12-23T11:51:01.958Z,8.30
2022-12-23T11:53:29.322Z,7.55
2022-12-23T11:56:14.828Z,9.75
2022-12-23T11:58:59.421Z,6.38
2022-12-23T12:01:26.463Z,9.02
2022-12-23T12:04:16.968Z,6.30
2022-12-23T12:06:51.169Z,10.20
2022-12-23T12:09:20.963Z,5.75
2022-12-23T12:11:51.956Z,5.35
2022-12-23T12:14:41.018Z,6.15
2022-12-23T12:17:11.053Z,5.50
2022-12-23T12:19:53.822Z,9.68
2022-12-23T12:22:35.900Z,6.30
2022-12-23T12:25:37.984Z,6.47
2022-12-23T12:28:16.675Z,4.68
2022-12-23T12:31:24.437Z,5.47
2022-12-23T12:33:58.132Z,4.95
2022-12-23T12:36:46.377Z,6.18
2022-12-23T12:39:20.939Z,11.07
2022-12-23T12:42:05.795Z,8.82
2022-12-23T12:45:11.930Z,6.25
2022-12-23T12:47:55.748Z,7.50
2022-12-23T12:50:29.453Z,7.30
2022-12-23T12:53:03.570Z,9.30
2022-12-23T12:55:34.911Z,10.23
2022-12-23T12:58:05.243Z,10.63
2022-12-23T13:01:07.355Z,6.75
2022-12-23T13:04:16.037Z,6.65
2022-12-23T13:06:50.887Z,10.50
2022-12-23T13:09:51.280Z,8.65
2022-12-23T13:12:43.102Z,7.80
2022-12-23T13:15:19.341Z,9.25
2022-12-23T13:18:06.602Z,5.80
2022-12-23T13:20:46.491Z,4.80
2022-12-23T13:23:42.737Z,3.75
2022-12-23T13:26:40.428Z,2.55
2022-12-23T13:29:30.593Z,4.50
2022-12-23T13:32:06.074Z,3.63
2022-12-23T13:34:45.605Z,4.20
2022-12-23T13:37:33.623Z,3.33
2022-12-23T13:40:29.427Z,2.75
2022-12-23T13:43:04.965Z,2.75
2022-12-23T13:45:39.256Z,3.35
2022-12-23T13:48:34.312Z,3.72
2022-12-23T13:51:19.184Z,2.13
2022-12-23T13:53:50.031Z,2.30
2022-12-23T13:56:53.372Z,2.22
2022-12-23T13:59:22.485Z,2.38
2022-12-23T14:01:53.087Z,4.78
2022-12-23T14:04:28.922Z,1.27
2022-12-23T14:07:05.102Z,2.72
2022-12-23T14:09:39.230Z,2.25
2022-12-23T14:12:21.114Z,2.83
2022-12-23T14:15:17.084Z,2.90
2022-12-23T14:18:04.949Z,1.35
2022-12-23T14:20:56.914Z,1.77
2022-12-23T14:23:29.389Z,2.10
2022-12-23T14:26:17.889Z,7.13
2022-12-23T14:29:02.160Z,2.15
2022-12-23T14:31:41.336Z,2.08
2022-12-23T14:34:18.953Z,1.83
2022-12-23T14:37:20.893Z,1.83
2022-12-23T14:39:49.534Z,1.40
2022-12-23T14:42:36.396Z,2.47
2022-12-23T14:45:29.644Z,2.10
2022-12-23T14:47:58.519Z,2.30
2022-12-23T14:50:43.571Z,2.42
2022-12-23T14:53:36.024Z,1.83
2022-12-23T14:56:15.456Z,3.20
2022-12-23T14:58:54.373Z,2.50
2022-12-23T15:01:39.416Z,1.63
2022-12-23T15:04:27.347Z,2.05
2022-12-23T15:07:04.083Z,3.67
2022-12-23T15:09:43.952Z,1.83
2022-12-23T15:12:18.721Z,2.55
2022-12-23T15:14:51.352Z,3.25
2022-12-23T15:17:27.902Z,2.67
2022-12-23T15:20:16.654Z,3.17
2022-12-23T15:22:45.879Z,3.08
2022-12-23T15:25:31.663Z,5.40
2022-12-23T15:28:02.461Z,2.58
2022-12-23T15:30:36.477Z,3.22
2022-12-23T15:33:34.989Z,3.63
2022-12-23T15:35:57.955Z,3.35
2022-12-23T15:38:29.772Z,3.22
2022-12-23T15:43:27.678Z,4.68
2022-12-23T15:45:55.182Z,4.00
2022-12-23T15:48:31.877Z,2.60
2022-12-23T15:51:06.807Z,5.82
2022-12-23T15:53:37.536Z,4.13
2022-12-23T15:56:09.257Z,5.22
2022-12-23T15:58:40.464Z,3.92
2022-12-23T16:01:13.632Z,6.43
2022-12-23T16:03:43.963Z,4.22
2022-12-23T16:06:27.942Z,10.77
2022-12-23T16:09:01.560Z,3.88
2022-12-23T16:11:53.539Z,7.30
2022-12-23T16:14:40.754Z,13.90
2022-12-23T16:17:07.873Z,7.15
2022-12-23T16:19:42.633Z,11.23
2022-12-23T16:22:18.408Z,20.05
2022-12-23T16:24:49.057Z,7.85
2022-12-23T16:27:18.994Z,10.00
2022-12-23T16:29:47.783Z,10.90
2022-12-23T16:32:19.524Z,8.48
2022-12-23T16:34:53.541Z,5.55
2022-12-23T16:37:20.670Z,4.30
2022-12-23T16:39:47.670Z,5.57
2022-12-23T16:42:14.608Z,18.83
2022-12-23T16:44:41.544Z,11.38
2022-12-23T16:47:17.408Z,18.30
2022-12-23T16:49:44.961Z,22.30
2022-12-23T16:52:14.244Z,21.83
2022-12-23T16:54:43.346Z,14.88
2022-12-23T16:57:10.659Z,14.30
2022-12-23T16:59:41.250Z,12.02
2022-12-23T17:02:19.450Z,10.83
2022-12-23T17:04:46.582Z,17.55
2022-12-23T17:07:13.551Z,19.13
2022-12-23T17:09:40.520Z,15.43
2022-12-23T17:12:09.417Z,27.52
2022-12-23T17:14:36.359Z,15.68
2022-12-23T17:17:14.155Z,17.10
2022-12-23T17:19:41.706Z,12.10
2022-12-23T17:22:12.923Z,20.17
2022-12-23T17:24:40.145Z,21.90
2022-12-23T17:27:16.208Z,18.02
2022-12-23T17:29:43.684Z,12.50
2022-12-23T17:32:12.373Z,13.48
2022-12-23T17:34:39.890Z,14.32
2022-12-23T17:37:18.315Z,11.68
2022-12-23T17:39:46.484Z,17.48
2022-12-23T17:42:24.952Z,14.05
2022-12-23T17:44:52.605Z,15.75
2022-12-23T17:47:22.390Z,23.63
2022-12-23T17:49:50.281Z,19.63
2022-12-23T17:52:23.345Z,21.60
2022-12-23T17:54:51.556Z,14.15
2022-12-23T17:57:24.475Z,15.90
2022-12-23T17:59:52.990Z,14.05
2022-12-23T18:02:33.212Z,17.63
2022-12-23T18:05:00.278Z,11.45
2022-12-23T18:07:27.336Z,22.25
2022-12-23T18:09:54.636Z,12.77
2022-12-23T18:12:30.422Z,9.60
2022-12-23T18:14:57.771Z,17.50
2022-12-23T18:17:24.853Z,12.32
2022-12-23T18:19:52.225Z,14.10
2022-12-23T18:22:22.906Z,13.88
2022-12-23T18:24:57.009Z,22.95
2022-12-23T18:27:26.137Z,10.30
2022-12-23T18:29:53.263Z,16.77
2022-12-23T18:32:26.493Z,15.30
2022-12-23T18:34:54.723Z,21.88
2022-12-23T18:37:22.335Z,19.17
2022-12-23T18:39:49.384Z,16.85
2022-12-23T18:42:19.388Z,14.55
2022-12-23T18:44:48.537Z,14.43
2022-12-23T18:47:22.791Z,13.95
2022-12-23T18:49:49.855Z,12.30
2022-12-23T18:52:16.940Z,12.73
2022-12-23T18:54:44.025Z,17.75
2022-12-23T18:57:11.184Z,13.25
2022-12-23T18:59:40.026Z,10.23
2022-12-23T19:02:08.170Z,15.20
2022-12-23T19:04:35.364Z,15.25
2022-12-23T19:07:02.643Z,19.00
2022-12-23T19:09:29.856Z,16.35
2022-12-23T19:11:57.372Z,17.05
2022-12-23T19:14:24.384Z,16.15
2022-12-23T19:16:52.560Z,20.33
2022-12-23T19:19:20.623Z,14.48
2022-12-23T19:21:47.776Z,14.60
2022-12-23T19:24:15.186Z,10.70
2022-12-23T19:26:42.123Z,18.20
2022-12-23T19:29:09.214Z,10.45
2022-12-23T19:31:36.204Z,18.38
2022-12-23T19:34:03.521Z,12.02
2022-12-23T19:36:30.909Z,9.25
2022-12-23T19:38:58.085Z,17.88
2022-12-23T19:41:25.520Z,14.13
2022-12-23T19:43:52.619Z,11.98
2022-12-23T19:46:19.532Z,16.63
2022-12-23T19:48:52.620Z,17.33
2022-12-23T19:51:19.754Z,11.50
2022-12-23T19:53:51.020Z,9.20
2022-12-23T19:56:22.094Z,13.73
2022-12-23T19:58:51.176Z,14.18
2022-12-23T20:01:22.336Z,16.67
2022-12-23T20:03:52.489Z,11.77
2022-12-23T20:06:21.681Z,16.95
2022-12-23T20:08:48.979Z,14.07
2022-12-23T20:11:26.247Z,18.10
2022-12-23T20:13:56.040Z,19.95
2022-12-23T20:16:24.584Z,14.32
2022-12-23T20:18:52.576Z,17.42
2022-12-23T20:31:27.413Z,10.90
2022-12-23T20:33:55.905Z,11.68
2022-12-23T20:36:25.022Z,8.15
2022-12-23T20:38:52.487Z,13.63
2022-12-23T20:41:22.419Z,11.65
2022-12-23T20:44:23.481Z,9.10
2022-12-23T20:46:37.804Z,14.02
2022-12-23T20:49:10.752Z,14.13
2022-12-23T20:51:38.778Z,7.18
2022-12-23T20:54:07.437Z,16.30
2022-12-23T20:56:34.464Z,13.32
2022-12-23T20:59:04.360Z,16.00
2022-12-23T21:01:39.826Z,8.70
2022-12-23T21:04:13.141Z,10.18
2022-12-23T21:06:41.826Z,6.68
2022-12-23T21:09:11.700Z,9.70
2022-12-23T21:11:41.683Z,10.27
2022-12-23T21:14:09.526Z,8.27
2022-12-23T21:16:38.223Z,12.75
2022-12-23T21:19:07.286Z,8.15
2022-12-23T21:21:34.790Z,13.15
2022-12-23T21:24:06.789Z,9.75
2022-12-23T21:26:36.085Z,9.63
2022-12-23T21:29:06.092Z,13.50
2022-12-23T21:31:37.308Z,5.97
2022-12-23T21:34:05.598Z,18.15
2022-12-23T21:36:36.507Z,12.10
2022-12-23T21:39:05.497Z,12.87
2022-12-23T21:41:36.566Z,12.32
2022-12-23T21:44:04.751Z,13.32
2022-12-23T21:52:32.338Z,13.35
2022-12-23T21:57:55.040Z,19.27
2022-12-23T22:00:22.439Z,15.55
2022-12-23T22:02:52.265Z,11.48
2022-12-23T22:05:19.403Z,11.93
2022-12-23T22:07:46.564Z,8.80
2022-12-23T22:10:18.768Z,8.70
2022-12-23T22:12:45.899Z,12.13
2022-12-23T22:15:12.926Z,11.55
2022-12-23T22:17:41.455Z,17.65
2022-12-23T22:20:11.172Z,21.92
2022-12-23T22:22:38.173Z,17.13
2022-12-23T22:25:05.527Z,8.05
2022-12-23T22:27:32.743Z,12.80
2022-12-23T22:29:59.956Z,17.17
2022-12-23T22:32:28.266Z,11.45
2022-12-23T22:34:57.750Z,23.30
2022-12-23T22:37:25.109Z,16.77
2022-12-23T22:39:53.866Z,14.75
2022-12-23T22:42:20.988Z,11.18
2022-12-23T22:44:48.109Z,9.70
2022-12-23T22:47:15.469Z,10.18
2022-12-23T22:49:42.804Z,8.00
2022-12-23T22:52:09.870Z,18.33
2022-12-23T22:54:37.176Z,19.95
2022-12-23T22:57:05.917Z,12.68
2022-12-23T22:59:33.141Z,16.38
2022-12-23T23:02:00.493Z,9.85
2022-12-23T23:04:28.725Z,10.60
2022-12-23T23:06:55.758Z,23.05
2022-12-23T23:09:22.878Z,13.55
2022-12-23T23:11:50.172Z,11.00
2022-12-23T23:14:18.628Z,15.43
2022-12-23T23:16:45.928Z,12.05
2022-12-23T23:19:15.432Z,14.43
2022-12-23T23:21:42.606Z,13.60
2022-12-23T23:24:12.145Z,7.80
2022-12-23T23:26:39.468Z,17.48
2022-12-23T23:29:07.122Z,13.48
2022-12-23T23:31:43.191Z,10.60
2022-12-23T23:34:12.076Z,11.77
2022-12-23T23:36:41.555Z,16.75
2022-12-23T23:39:08.800Z,12.57
2022-12-23T23:41:35.899Z,11.60
2022-12-23T23:44:03.225Z,17.80
2022-12-23T23:46:34.019Z,14.65
2022-12-23T23:49:02.162Z,16.00
2022-12-23T23:51:29.568Z,11.75
2022-12-23T23:53:56.613Z,26.10
2022-12-23T23:56:25.799Z,29.30
2022-12-23T23:58:53.669Z,19.75
